sensor_id;sensor_type;location;lat;lon;timestamp;temperature;humidity
8188;DHT22;4135;49.184;9.722;2023-03-23T00:01:54;21.80;45.90
8188;DHT22;4135;49.184;9.722;2023-03-23T00:04:23;21.80;45.90
8188;DHT22;4135;49.184;9.722;2023-03-23T00:06:56;21.80;45.90
8188;DHT22;4135;49.184;9.722;2023-03-23T00:09:25;21.80;45.90
8188;DHT22;4135;49.184;9.722;2023-03-23T00:11:55;21.80;45.90
8188;DHT22;4135;49.184;9.722;2023-03-23T00:14:26;21.80;45.90
8188;DHT22;4135;49.184;9.722;2023-03-23T00:16:55;21.80;45.90
8188;DHT22;4135;49.184;9.722;2023-03-23T00:19:25;21.80;46.50
8188;DHT22;4135;49.184;9.722;2023-03-23T00:21:54;21.90;46.00
8188;DHT22;4135;49.184;9.722;2023-03-23T00:24:24;21.80;45.90
8188;DHT22;4135;49.184;9.722;2023-03-23T00:26:53;21.80;45.90
8188;DHT22;4135;49.184;9.722;2023-03-23T00:29:23;21.80;45.90
8188;DHT22;4135;49.184;9.722;2023-03-23T00:31:52;21.80;45.90
8188;DHT22;4135;49.184;9.722;2023-03-23T00:34:23;21.80;45.90
8188;DHT22;4135;49.184;9.722;2023-03-23T00:36:55;21.80;45.90
8188;DHT22;4135;49.184;9.722;2023-03-23T00:39:27;21.80;45.90
8188;DHT22;4135;49.184;9.722;2023-03-23T00:41:56;21.80;45.90
8188;DHT22;4135;49.184;9.722;2023-03-23T00:44:31;21.80;45.90
8188;DHT22;4135;49.184;9.722;2023-03-23T00:47:01;21.70;45.80
8188;DHT22;4135;49.184;9.722;2023-03-23T00:49:31;21.80;45.90
8188;DHT22;4135;49.184;9.722;2023-03-23T00:52:05;21.80;45.90
8188;DHT22;4135;49.184;9.722;2023-03-23T00:54:35;21.80;45.90
8188;DHT22;4135;49.184;9.722;2023-03-23T00:57:06;21.80;45.90
8188;DHT22;4135;49.184;9.722;2023-03-23T00:59:36;21.80;45.90
8188;DHT22;4135;49.184;9.722;2023-03-23T01:02:06;21.80;46.00
8188;DHT22;4135;49.184;9.722;2023-03-23T01:04:38;21.80;45.90
8188;DHT22;4135;49.184;9.722;2023-03-23T01:07:07;21.80;45.90
8188;DHT22;4135;49.184;9.722;2023-03-23T01:09:37;21.80;46.00
8188;DHT22;4135;49.184;9.722;2023-03-23T01:12:09;21.80;46.00
8188;DHT22;4135;49.184;9.722;2023-03-23T01:14:38;21.80;46.00
8188;DHT22;4135;49.184;9.722;2023-03-23T01:17:08;21.70;45.90
8188;DHT22;4135;49.184;9.722;2023-03-23T01:19:37;21.70;45.90
8188;DHT22;4135;49.184;9.722;2023-03-23T01:22:07;21.70;45.90
8188;DHT22;4135;49.184;9.722;2023-03-23T01:24:36;21.80;46.00
8188;DHT22;4135;49.184;9.722;2023-03-23T01:27:06;21.70;45.90
8188;DHT22;4135;49.184;9.722;2023-03-23T01:29:36;21.70;45.90
8188;DHT22;4135;49.184;9.722;2023-03-23T01:32:05;21.70;45.90
8188;DHT22;4135;49.184;9.722;2023-03-23T01:34:35;21.70;46.00
8188;DHT22;4135;49.184;9.722;2023-03-23T01:37:05;21.70;46.00
8188;DHT22;4135;49.184;9.722;2023-03-23T01:39:38;21.70;46.00
8188;DHT22;4135;49.184;9.722;2023-03-23T01:42:09;21.80;46.00
8188;DHT22;4135;49.184;9.722;2023-03-23T01:47:08;21.70;45.90
8188;DHT22;4135;49.184;9.722;2023-03-23T01:49:41;21.70;45.90
8188;DHT22;4135;49.184;9.722;2023-03-23T01:52:16;21.70;46.00
8188;DHT22;4135;49.184;9.722;2023-03-23T01:54:48;21.70;45.90
8188;DHT22;4135;49.184;9.722;2023-03-23T01:57:19;21.70;46.00
8188;DHT22;4135;49.184;9.722;2023-03-23T01:59:52;21.70;46.00
8188;DHT22;4135;49.184;9.722;2023-03-23T02:02:24;21.70;46.00
8188;DHT22;4135;49.184;9.722;2023-03-23T02:04:58;21.70;46.00
8188;DHT22;4135;49.184;9.722;2023-03-23T02:07:28;21.70;46.00
8188;DHT22;4135;49.184;9.722;2023-03-23T02:09:58;21.70;46.60
8188;DHT22;4135;49.184;9.722;2023-03-23T02:12:29;21.70;46.00
8188;DHT22;4135;49.184;9.722;2023-03-23T02:14:58;21.70;46.00
8188;DHT22;4135;49.184;9.722;2023-03-23T02:28:30;21.70;46.00
8188;DHT22;4135;49.184;9.722;2023-03-23T02:34:05;21.70;46.00
8188;DHT22;4135;49.184;9.722;2023-03-23T02:36:39;21.60;45.90
8188;DHT22;4135;49.184;9.722;2023-03-23T02:39:24;21.60;45.90
8188;DHT22;4135;49.184;9.722;2023-03-23T02:42:15;21.60;46.00
8188;DHT22;4135;49.184;9.722;2023-03-23T02:44:47;21.70;46.00
8188;DHT22;4135;49.184;9.722;2023-03-23T02:47:21;21.60;45.90
8188;DHT22;4135;49.184;9.722;2023-03-23T02:49:54;21.60;45.90
8188;DHT22;4135;49.184;9.722;2023-03-23T02:52:29;21.60;45.90
8188;DHT22;4135;49.184;9.722;2023-03-23T02:55:00;21.60;45.90
8188;DHT22;4135;49.184;9.722;2023-03-23T02:57:31;21.60;45.90
8188;DHT22;4135;49.184;9.722;2023-03-23T03:00:01;21.60;45.90
8188;DHT22;4135;49.184;9.722;2023-03-23T03:02:33;21.70;46.10
8188;DHT22;4135;49.184;9.722;2023-03-23T03:05:30;21.70;46.00
8188;DHT22;4135;49.184;9.722;2023-03-23T03:11:09;21.60;45.90
8188;DHT22;4135;49.184;9.722;2023-03-23T03:13:46;21.60;45.90
8188;DHT22;4135;49.184;9.722;2023-03-23T03:21:42;21.60;45.90
8188;DHT22;4135;49.184;9.722;2023-03-23T03:24:15;21.60;45.90
8188;DHT22;4135;49.184;9.722;2023-03-23T03:26:49;21.70;46.10
8188;DHT22;4135;49.184;9.722;2023-03-23T03:29:25;21.70;46.00
8188;DHT22;4135;49.184;9.722;2023-03-23T03:31:56;21.60;45.90
8188;DHT22;4135;49.184;9.722;2023-03-23T03:34:27;21.60;46.00
8188;DHT22;4135;49.184;9.722;2023-03-23T03:36:58;21.60;45.90
8188;DHT22;4135;49.184;9.722;2023-03-23T03:39:28;21.60;46.00
8188;DHT22;4135;49.184;9.722;2023-03-23T03:41:58;21.60;45.90
8188;DHT22;4135;49.184;9.722;2023-03-23T03:44:27;21.60;45.90
8188;DHT22;4135;49.184;9.722;2023-03-23T03:46:57;21.60;45.90
8188;DHT22;4135;49.184;9.722;2023-03-23T03:49:26;21.60;45.90
8188;DHT22;4135;49.184;9.722;2023-03-23T03:51:56;21.60;45.90
8188;DHT22;4135;49.184;9.722;2023-03-23T03:54:25;21.60;46.00
8188;DHT22;4135;49.184;9.722;2023-03-23T03:56:55;21.60;45.90
8188;DHT22;4135;49.184;9.722;2023-03-23T03:59:27;21.60;45.90
8188;DHT22;4135;49.184;9.722;2023-03-23T04:01:56;21.60;46.00
8188;DHT22;4135;49.184;9.722;2023-03-23T04:04:26;21.60;45.90
8188;DHT22;4135;49.184;9.722;2023-03-23T04:06:55;21.60;45.90
8188;DHT22;4135;49.184;9.722;2023-03-23T04:09:26;21.60;45.90
8188;DHT22;4135;49.184;9.722;2023-03-23T04:11:56;21.60;45.90
8188;DHT22;4135;49.184;9.722;2023-03-23T04:14:25;21.60;45.90
8188;DHT22;4135;49.184;9.722;2023-03-23T04:16:55;21.60;46.00
8188;DHT22;4135;49.184;9.722;2023-03-23T04:19:26;21.60;45.90
8188;DHT22;4135;49.184;9.722;2023-03-23T04:21:57;21.60;45.90
8188;DHT22;4135;49.184;9.722;2023-03-23T04:24:27;21.60;46.00
8188;DHT22;4135;49.184;9.722;2023-03-23T04:27:00;21.60;46.00
8188;DHT22;4135;49.184;9.722;2023-03-23T04:29:31;21.60;46.00
8188;DHT22;4135;49.184;9.722;2023-03-23T04:32:03;21.60;46.00
8188;DHT22;4135;49.184;9.722;2023-03-23T04:34:32;21.60;46.00
8188;DHT22;4135;49.184;9.722;2023-03-23T04:37:04;21.60;46.00
8188;DHT22;4135;49.184;9.722;2023-03-23T04:39:33;21.60;46.00
8188;DHT22;4135;49.184;9.722;2023-03-23T04:42:03;21.60;46.00
8188;DHT22;4135;49.184;9.722;2023-03-23T04:44:33;21.60;46.00
8188;DHT22;4135;49.184;9.722;2023-03-23T04:47:02;21.60;46.00
8188;DHT22;4135;49.184;9.722;2023-03-23T04:49:32;21.60;46.00
8188;DHT22;4135;49.184;9.722;2023-03-23T04:52:01;21.60;46.00
8188;DHT22;4135;49.184;9.722;2023-03-23T04:54:31;21.60;46.10
8188;DHT22;4135;49.184;9.722;2023-03-23T04:57:01;21.60;46.00
8188;DHT22;4135;49.184;9.722;2023-03-23T04:59:31;21.60;46.00
8188;DHT22;4135;49.184;9.722;2023-03-23T05:02:00;21.60;46.10
8188;DHT22;4135;49.184;9.722;2023-03-23T05:04:30;21.60;46.10
8188;DHT22;4135;49.184;9.722;2023-03-23T05:06:59;21.60;46.10
8188;DHT22;4135;49.184;9.722;2023-03-23T05:09:29;21.60;46.10
8188;DHT22;4135;49.184;9.722;2023-03-23T05:12:06;21.60;46.10
8188;DHT22;4135;49.184;9.722;2023-03-23T05:14:40;21.60;46.10
8188;DHT22;4135;49.184;9.722;2023-03-23T05:17:10;21.60;46.10
8188;DHT22;4135;49.184;9.722;2023-03-23T05:19:40;21.60;46.10
8188;DHT22;4135;49.184;9.722;2023-03-23T05:22:11;21.60;46.10
8188;DHT22;4135;49.184;9.722;2023-03-23T05:24:41;21.60;46.10
8188;DHT22;4135;49.184;9.722;2023-03-23T05:27:13;21.60;46.10
8188;DHT22;4135;49.184;9.722;2023-03-23T05:29:44;21.60;46.10
8188;DHT22;4135;49.184;9.722;2023-03-23T05:32:18;21.60;46.10
8188;DHT22;4135;49.184;9.722;2023-03-23T05:34:48;21.60;46.10
8188;DHT22;4135;49.184;9.722;2023-03-23T05:37:18;21.60;46.10
8188;DHT22;4135;49.184;9.722;2023-03-23T05:39:47;21.60;46.10
8188;DHT22;4135;49.184;9.722;2023-03-23T05:42:17;21.60;46.10
8188;DHT22;4135;49.184;9.722;2023-03-23T05:44:46;21.60;46.10
8188;DHT22;4135;49.184;9.722;2023-03-23T05:47:16;21.60;46.10
8188;DHT22;4135;49.184;9.722;2023-03-23T05:49:46;21.60;46.10
8188;DHT22;4135;49.184;9.722;2023-03-23T05:52:16;21.60;46.10
8188;DHT22;4135;49.184;9.722;2023-03-23T05:54:45;21.60;46.10
8188;DHT22;4135;49.184;9.722;2023-03-23T05:57:15;21.60;46.10
8188;DHT22;4135;49.184;9.722;2023-03-23T05:59:45;21.60;46.10
8188;DHT22;4135;49.184;9.722;2023-03-23T06:02:14;21.60;46.20
8188;DHT22;4135;49.184;9.722;2023-03-23T06:04:44;21.70;46.20
8188;DHT22;4135;49.184;9.722;2023-03-23T06:07:14;21.60;46.20
8188;DHT22;4135;49.184;9.722;2023-03-23T06:09:44;21.60;46.20
8188;DHT22;4135;49.184;9.722;2023-03-23T06:12:13;21.60;46.20
8188;DHT22;4135;49.184;9.722;2023-03-23T06:14:43;21.60;46.20
8188;DHT22;4135;49.184;9.722;2023-03-23T06:17:16;21.60;46.20
8188;DHT22;4135;49.184;9.722;2023-03-23T06:19:46;21.60;46.20
8188;DHT22;4135;49.184;9.722;2023-03-23T06:22:18;21.60;46.20
8188;DHT22;4135;49.184;9.722;2023-03-23T06:24:47;21.60;46.20
8188;DHT22;4135;49.184;9.722;2023-03-23T06:27:18;21.60;46.20
8188;DHT22;4135;49.184;9.722;2023-03-23T06:29:47;21.60;46.20
8188;DHT22;4135;49.184;9.722;2023-03-23T06:32:18;21.70;46.30
8188;DHT22;4135;49.184;9.722;2023-03-23T06:34:48;21.60;46.20
8188;DHT22;4135;49.184;9.722;2023-03-23T06:37:17;22.40;46.90
8188;DHT22;4135;49.184;9.722;2023-03-23T06:39:47;21.60;46.20
8188;DHT22;4135;49.184;9.722;2023-03-23T06:42:17;21.60;46.20
8188;DHT22;4135;49.184;9.722;2023-03-23T06:44:47;21.60;46.20
8188;DHT22;4135;49.184;9.722;2023-03-23T06:47:17;21.70;46.30
8188;DHT22;4135;49.184;9.722;2023-03-23T06:49:46;21.60;46.20
8188;DHT22;4135;49.184;9.722;2023-03-23T06:52:16;21.70;46.20
8188;DHT22;4135;49.184;9.722;2023-03-23T06:54:46;21.70;46.20
8188;DHT22;4135;49.184;9.722;2023-03-23T06:57:16;21.70;46.20
8188;DHT22;4135;49.184;9.722;2023-03-23T06:59:46;22.40;46.80
8188;DHT22;4135;49.184;9.722;2023-03-23T07:02:16;21.60;46.00
8188;DHT22;4135;49.184;9.722;2023-03-23T07:04:46;21.80;46.50
8188;DHT22;4135;49.184;9.722;2023-03-23T07:07:15;21.70;46.00
8188;DHT22;4135;49.184;9.722;2023-03-23T07:09:47;21.60;45.90
8188;DHT22;4135;49.184;9.722;2023-03-23T07:12:17;21.60;45.90
8188;DHT22;4135;49.184;9.722;2023-03-23T07:14:46;21.60;45.90
8188;DHT22;4135;49.184;9.722;2023-03-23T07:17:16;21.60;45.80
8188;DHT22;4135;49.184;9.722;2023-03-23T07:19:46;21.60;45.80
8188;DHT22;4135;49.184;9.722;2023-03-23T07:22:15;21.60;45.70
8188;DHT22;4135;49.184;9.722;2023-03-23T07:24:45;21.60;45.70
8188;DHT22;4135;49.184;9.722;2023-03-23T07:27:14;21.60;45.60
8188;DHT22;4135;49.184;9.722;2023-03-23T07:29:44;21.70;45.70
8188;DHT22;4135;49.184;9.722;2023-03-23T07:32:14;21.70;45.70
8188;DHT22;4135;49.184;9.722;2023-03-23T07:34:43;21.70;45.70
8188;DHT22;4135;49.184;9.722;2023-03-23T07:37:13;21.70;45.70
8188;DHT22;4135;49.184;9.722;2023-03-23T07:39:42;21.80;45.90
8188;DHT22;4135;49.184;9.722;2023-03-23T07:42:12;21.80;45.90
8188;DHT22;4135;49.184;9.722;2023-03-23T07:44:41;21.80;45.90
8188;DHT22;4135;49.184;9.722;2023-03-23T07:47:11;21.80;46.00
8188;DHT22;4135;49.184;9.722;2023-03-23T07:49:41;21.80;46.10
8188;DHT22;4135;49.184;9.722;2023-03-23T07:52:10;21.80;46.20
8188;DHT22;4135;49.184;9.722;2023-03-23T07:54:40;21.80;46.30
8188;DHT22;4135;49.184;9.722;2023-03-23T07:57:09;21.80;46.30
8188;DHT22;4135;49.184;9.722;2023-03-23T07:59:39;21.80;46.30
8188;DHT22;4135;49.184;9.722;2023-03-23T08:02:09;21.80;46.40
8188;DHT22;4135;49.184;9.722;2023-03-23T08:04:39;21.80;46.40
8188;DHT22;4135;49.184;9.722;2023-03-23T08:07:09;21.80;46.50
8188;DHT22;4135;49.184;9.722;2023-03-23T08:09:42;21.80;46.50
8188;DHT22;4135;49.184;9.722;2023-03-23T08:12:11;21.90;46.70
8188;DHT22;4135;49.184;9.722;2023-03-23T08:14:41;21.90;46.70
8188;DHT22;4135;49.184;9.722;2023-03-23T08:17:11;21.90;46.80
8188;DHT22;4135;49.184;9.722;2023-03-23T08:19:40;21.90;46.80
8188;DHT22;4135;49.184;9.722;2023-03-23T08:22:09;21.90;46.80
8188;DHT22;4135;49.184;9.722;2023-03-23T08:24:39;21.90;46.90
8188;DHT22;4135;49.184;9.722;2023-03-23T08:27:09;21.90;46.90
8188;DHT22;4135;49.184;9.722;2023-03-23T08:29:38;21.90;47.00
8188;DHT22;4135;49.184;9.722;2023-03-23T08:32:09;21.90;47.00
8188;DHT22;4135;49.184;9.722;2023-03-23T08:34:40;21.90;47.00
8188;DHT22;4135;49.184;9.722;2023-03-23T08:37:11;21.90;47.00
8188;DHT22;4135;49.184;9.722;2023-03-23T08:39:41;21.90;47.00
8188;DHT22;4135;49.184;9.722;2023-03-23T08:42:12;21.90;47.20
8188;DHT22;4135;49.184;9.722;2023-03-23T08:44:43;21.90;47.20
8188;DHT22;4135;49.184;9.722;2023-03-23T08:47:13;21.80;47.20
8188;DHT22;4135;49.184;9.722;2023-03-23T08:49:42;21.80;47.20
8188;DHT22;4135;49.184;9.722;2023-03-23T08:52:12;21.80;47.30
8188;DHT22;4135;49.184;9.722;2023-03-23T08:54:42;21.70;47.40
8188;DHT22;4135;49.184;9.722;2023-03-23T08:57:16;21.70;47.40
8188;DHT22;4135;49.184;9.722;2023-03-23T08:59:47;21.70;47.50
8188;DHT22;4135;49.184;9.722;2023-03-23T09:02:17;21.60;47.50
8188;DHT22;4135;49.184;9.722;2023-03-23T09:04:46;21.70;47.70
8188;DHT22;4135;49.184;9.722;2023-03-23T09:07:16;21.60;47.70
8188;DHT22;4135;49.184;9.722;2023-03-23T09:09:45;21.60;47.70
8188;DHT22;4135;49.184;9.722;2023-03-23T09:12:15;21.60;47.70
8188;DHT22;4135;49.184;9.722;2023-03-23T09:14:46;21.70;47.80
8188;DHT22;4135;49.184;9.722;2023-03-23T09:17:15;21.70;47.70
8188;DHT22;4135;49.184;9.722;2023-03-23T09:19:45;21.70;47.70
8188;DHT22;4135;49.184;9.722;2023-03-23T09:22:15;21.60;47.70
8188;DHT22;4135;49.184;9.722;2023-03-23T09:24:49;21.60;47.80
8188;DHT22;4135;49.184;9.722;2023-03-23T09:27:20;21.90;48.00
8188;DHT22;4135;49.184;9.722;2023-03-23T09:29:50;21.60;47.90
8188;DHT22;4135;49.184;9.722;2023-03-23T09:32:20;21.60;47.90
8188;DHT22;4135;49.184;9.722;2023-03-23T09:34:51;21.60;47.90
8188;DHT22;4135;49.184;9.722;2023-03-23T09:37:24;21.50;47.80
8188;DHT22;4135;49.184;9.722;2023-03-23T09:39:54;21.60;47.90
8188;DHT22;4135;49.184;9.722;2023-03-23T09:42:49;21.60;48.10
8188;DHT22;4135;49.184;9.722;2023-03-23T09:45:25;21.90;48.90
8188;DHT22;4135;49.184;9.722;2023-03-23T09:50:55;21.70;48.40
8188;DHT22;4135;49.184;9.722;2023-03-23T09:53:42;21.60;48.30
8188;DHT22;4135;49.184;9.722;2023-03-23T09:56:15;21.60;48.30
8188;DHT22;4135;49.184;9.722;2023-03-23T10:01:52;21.60;48.70
8188;DHT22;4135;49.184;9.722;2023-03-23T10:04:41;21.50;48.40
8188;DHT22;4135;49.184;9.722;2023-03-23T10:07:16;21.50;48.40
8188;DHT22;4135;49.184;9.722;2023-03-23T10:09:55;21.40;48.30
8188;DHT22;4135;49.184;9.722;2023-03-23T10:15:29;21.30;48.10
8188;DHT22;4135;49.184;9.722;2023-03-23T10:20:47;21.10;48.10
8188;DHT22;4135;49.184;9.722;2023-03-23T10:26:07;21.10;48.30
8188;DHT22;4135;49.184;9.722;2023-03-23T10:28:42;21.10;48.30
8188;DHT22;4135;49.184;9.722;2023-03-23T10:32:02;21.90;49.20
8188;DHT22;4135;49.184;9.722;2023-03-23T10:34:54;21.20;48.50
8188;DHT22;4135;49.184;9.722;2023-03-23T10:37:29;21.20;48.40
8188;DHT22;4135;49.184;9.722;2023-03-23T10:40:00;21.30;48.40
8188;DHT22;4135;49.184;9.722;2023-03-23T10:42:37;21.30;48.40
8188;DHT22;4135;49.184;9.722;2023-03-23T10:45:22;21.40;48.50
8188;DHT22;4135;49.184;9.722;2023-03-23T10:47:56;21.70;48.70
8188;DHT22;4135;49.184;9.722;2023-03-23T10:50:31;21.40;48.50
8188;DHT22;4135;49.184;9.722;2023-03-23T10:53:14;21.40;48.50
8188;DHT22;4135;49.184;9.722;2023-03-23T10:55:46;21.40;48.60
8188;DHT22;4135;49.184;9.722;2023-03-23T11:00:54;21.40;48.80
8188;DHT22;4135;49.184;9.722;2023-03-23T11:06:05;21.40;48.90
8188;DHT22;4135;49.184;9.722;2023-03-23T11:08:56;21.40;48.90
8188;DHT22;4135;49.184;9.722;2023-03-23T11:11:36;21.50;49.00
8188;DHT22;4135;49.184;9.722;2023-03-23T11:14:17;21.50;49.00
8188;DHT22;4135;49.184;9.722;2023-03-23T11:16:52;21.50;48.90
8188;DHT22;4135;49.184;9.722;2023-03-23T11:19:28;21.50;49.00
8188;DHT22;4135;49.184;9.722;2023-03-23T11:22:07;21.90;49.30
8188;DHT22;4135;49.184;9.722;2023-03-23T11:24:44;21.50;49.00
8188;DHT22;4135;49.184;9.722;2023-03-23T11:27:15;21.60;49.10
8188;DHT22;4135;49.184;9.722;2023-03-23T11:29:54;22.00;50.00
8188;DHT22;4135;49.184;9.722;2023-03-23T11:32:27;21.80;49.30
8188;DHT22;4135;49.184;9.722;2023-03-23T11:34:59;21.70;49.30
8188;DHT22;4135;49.184;9.722;2023-03-23T11:37:43;21.60;49.30
8188;DHT22;4135;49.184;9.722;2023-03-23T11:40:23;21.70;49.40
8188;DHT22;4135;49.184;9.722;2023-03-23T11:50:53;21.60;49.30
8188;DHT22;4135;49.184;9.722;2023-03-23T11:56:34;21.60;49.30
8188;DHT22;4135;49.184;9.722;2023-03-23T11:59:13;21.60;49.30
8188;DHT22;4135;49.184;9.722;2023-03-23T12:01:48;21.60;49.30
8188;DHT22;4135;49.184;9.722;2023-03-23T12:04:44;21.60;49.20
8188;DHT22;4135;49.184;9.722;2023-03-23T12:15:48;21.60;49.20
8188;DHT22;4135;49.184;9.722;2023-03-23T12:29:45;21.60;49.30
8188;DHT22;4135;49.184;9.722;2023-03-23T12:41:03;21.60;49.40
8188;DHT22;4135;49.184;9.722;2023-03-23T12:51:40;21.60;49.60
8188;DHT22;4135;49.184;9.722;2023-03-23T12:54:21;21.50;49.60
8188;DHT22;4135;49.184;9.722;2023-03-23T12:57:00;21.50;49.70
8188;DHT22;4135;49.184;9.722;2023-03-23T13:02:23;21.50;49.80
8188;DHT22;4135;49.184;9.722;2023-03-23T13:07:59;21.30;50.00
8188;DHT22;4135;49.184;9.722;2023-03-23T13:10:35;21.30;50.10
8188;DHT22;4135;49.184;9.722;2023-03-23T13:13:18;21.30;50.20
8188;DHT22;4135;49.184;9.722;2023-03-23T13:21:27;21.40;50.30
8188;DHT22;4135;49.184;9.722;2023-03-23T13:24:08;21.40;50.30
8188;DHT22;4135;49.184;9.722;2023-03-23T13:26:43;21.40;50.30
8188;DHT22;4135;49.184;9.722;2023-03-23T13:29:14;21.40;50.30
8188;DHT22;4135;49.184;9.722;2023-03-23T13:31:47;21.40;50.30
8188;DHT22;4135;49.184;9.722;2023-03-23T13:34:24;21.50;50.40
8188;DHT22;4135;49.184;9.722;2023-03-23T13:37:00;21.50;50.40
8188;DHT22;4135;49.184;9.722;2023-03-23T13:39:39;21.50;50.30
8188;DHT22;4135;49.184;9.722;2023-03-23T13:42:25;21.50;50.30
8188;DHT22;4135;49.184;9.722;2023-03-23T13:45:05;21.50;50.30
8188;DHT22;4135;49.184;9.722;2023-03-23T13:47:40;21.50;50.20
8188;DHT22;4135;49.184;9.722;2023-03-23T13:50:26;21.50;50.20
8188;DHT22;4135;49.184;9.722;2023-03-23T13:53:11;21.50;50.20
8188;DHT22;4135;49.184;9.722;2023-03-23T13:55:46;21.60;50.30
8188;DHT22;4135;49.184;9.722;2023-03-23T13:58:26;21.50;50.20
8188;DHT22;4135;49.184;9.722;2023-03-23T14:03:42;21.50;50.30
8188;DHT22;4135;49.184;9.722;2023-03-23T14:06:18;21.50;50.30
8188;DHT22;4135;49.184;9.722;2023-03-23T14:08:52;21.50;50.30
8188;DHT22;4135;49.184;9.722;2023-03-23T14:11:24;21.50;50.30
8188;DHT22;4135;49.184;9.722;2023-03-23T14:14:03;21.50;50.30
8188;DHT22;4135;49.184;9.722;2023-03-23T14:16:44;21.50;50.40
8188;DHT22;4135;49.184;9.722;2023-03-23T14:19:27;21.50;50.40
8188;DHT22;4135;49.184;9.722;2023-03-23T14:22:00;21.50;50.40
8188;DHT22;4135;49.184;9.722;2023-03-23T14:24:32;21.50;50.40
8188;DHT22;4135;49.184;9.722;2023-03-23T14:27:09;21.60;50.50
8188;DHT22;4135;49.184;9.722;2023-03-23T14:29:39;21.50;50.40
8188;DHT22;4135;49.184;9.722;2023-03-23T14:32:29;21.60;50.50
8188;DHT22;4135;49.184;9.722;2023-03-23T14:35:06;21.60;50.50
8188;DHT22;4135;49.184;9.722;2023-03-23T14:37:36;21.50;50.40
8188;DHT22;4135;49.184;9.722;2023-03-23T14:40:13;21.60;50.50
8188;DHT22;4135;49.184;9.722;2023-03-23T14:42:44;21.50;50.40
8188;DHT22;4135;49.184;9.722;2023-03-23T14:45:16;21.50;50.50
8188;DHT22;4135;49.184;9.722;2023-03-23T14:48:00;21.60;50.60
8188;DHT22;4135;49.184;9.722;2023-03-23T14:50:41;21.60;50.60
8188;DHT22;4135;49.184;9.722;2023-03-23T14:53:13;21.60;50.70
8188;DHT22;4135;49.184;9.722;2023-03-23T14:55:47;21.60;50.70
8188;DHT22;4135;49.184;9.722;2023-03-23T14:58:20;21.60;50.70
8188;DHT22;4135;49.184;9.722;2023-03-23T15:03:24;21.60;50.70
8188;DHT22;4135;49.184;9.722;2023-03-23T15:05:58;21.60;50.70
8188;DHT22;4135;49.184;9.722;2023-03-23T15:08:34;21.60;50.70
8188;DHT22;4135;49.184;9.722;2023-03-23T15:11:23;21.60;50.70
8188;DHT22;4135;49.184;9.722;2023-03-23T15:13:56;21.60;50.80
8188;DHT22;4135;49.184;9.722;2023-03-23T15:16:28;21.60;50.80
8188;DHT22;4135;49.184;9.722;2023-03-23T15:21:32;21.70;51.00
8188;DHT22;4135;49.184;9.722;2023-03-23T15:24:41;21.60;50.80
8188;DHT22;4135;49.184;9.722;2023-03-23T15:27:15;21.60;50.80
8188;DHT22;4135;49.184;9.722;2023-03-23T15:29:53;21.60;50.80
8188;DHT22;4135;49.184;9.722;2023-03-23T15:32:31;21.60;50.80
8188;DHT22;4135;49.184;9.722;2023-03-23T15:35:16;21.60;50.80
8188;DHT22;4135;49.184;9.722;2023-03-23T15:37:52;21.50;50.80
8188;DHT22;4135;49.184;9.722;2023-03-23T15:40:24;21.60;50.90
8188;DHT22;4135;49.184;9.722;2023-03-23T15:48:49;21.50;50.80
8188;DHT22;4135;49.184;9.722;2023-03-23T15:51:20;21.50;50.70
8188;DHT22;4135;49.184;9.722;2023-03-23T15:53:51;21.50;50.70
8188;DHT22;4135;49.184;9.722;2023-03-23T15:56:22;21.50;50.70
8188;DHT22;4135;49.184;9.722;2023-03-23T15:58:52;21.40;50.60
8188;DHT22;4135;49.184;9.722;2023-03-23T16:01:24;21.40;50.60
8188;DHT22;4135;49.184;9.722;2023-03-23T16:04:00;21.40;50.60
8188;DHT22;4135;49.184;9.722;2023-03-23T16:06:32;21.40;50.60
8188;DHT22;4135;49.184;9.722;2023-03-23T16:09:03;21.40;50.60
8188;DHT22;4135;49.184;9.722;2023-03-23T16:11:33;21.40;50.60
8188;DHT22;4135;49.184;9.722;2023-03-23T16:14:03;21.40;50.60
8188;DHT22;4135;49.184;9.722;2023-03-23T16:16:38;21.40;50.60
8188;DHT22;4135;49.184;9.722;2023-03-23T16:19:14;21.30;50.60
8188;DHT22;4135;49.184;9.722;2023-03-23T16:21:43;21.30;50.50
8188;DHT22;4135;49.184;9.722;2023-03-23T16:24:13;21.30;50.50
8188;DHT22;4135;49.184;9.722;2023-03-23T16:26:43;21.30;50.50
8188;DHT22;4135;49.184;9.722;2023-03-23T16:29:14;21.30;50.50
8188;DHT22;4135;49.184;9.722;2023-03-23T16:31:44;21.30;50.60
8188;DHT22;4135;49.184;9.722;2023-03-23T16:34:14;21.30;50.60
8188;DHT22;4135;49.184;9.722;2023-03-23T16:36:43;21.30;50.60
8188;DHT22;4135;49.184;9.722;2023-03-23T16:39:13;21.20;50.50
8188;DHT22;4135;49.184;9.722;2023-03-23T16:41:44;21.30;50.60
8188;DHT22;4135;49.184;9.722;2023-03-23T16:44:14;21.30;50.60
8188;DHT22;4135;49.184;9.722;2023-03-23T16:46:44;21.20;50.50
8188;DHT22;4135;49.184;9.722;2023-03-23T16:49:13;21.30;50.60
8188;DHT22;4135;49.184;9.722;2023-03-23T16:51:43;21.20;50.60
8188;DHT22;4135;49.184;9.722;2023-03-23T16:54:14;21.30;50.70
8188;DHT22;4135;49.184;9.722;2023-03-23T16:56:44;21.30;50.70
8188;DHT22;4135;49.184;9.722;2023-03-23T16:59:15;21.20;50.60
8188;DHT22;4135;49.184;9.722;2023-03-23T17:01:44;21.20;50.60
8188;DHT22;4135;49.184;9.722;2023-03-23T17:04:14;21.20;50.60
8188;DHT22;4135;49.184;9.722;2023-03-23T17:06:44;21.20;50.60
8188;DHT22;4135;49.184;9.722;2023-03-23T17:09:14;21.50;50.90
8188;DHT22;4135;49.184;9.722;2023-03-23T17:11:43;21.20;50.70
8188;DHT22;4135;49.184;9.722;2023-03-23T17:14:13;21.20;50.70
8188;DHT22;4135;49.184;9.722;2023-03-23T17:16:43;21.20;50.80
8188;DHT22;4135;49.184;9.722;2023-03-23T17:19:13;21.20;50.90
8188;DHT22;4135;49.184;9.722;2023-03-23T17:21:42;21.20;50.90
8188;DHT22;4135;49.184;9.722;2023-03-23T17:24:12;21.20;50.90
8188;DHT22;4135;49.184;9.722;2023-03-23T17:26:42;21.20;50.90
8188;DHT22;4135;49.184;9.722;2023-03-23T17:29:11;21.20;50.90
8188;DHT22;4135;49.184;9.722;2023-03-23T17:31:41;21.20;50.90
8188;DHT22;4135;49.184;9.722;2023-03-23T17:34:11;21.20;51.00
8188;DHT22;4135;49.184;9.722;2023-03-23T17:36:40;21.20;51.00
8188;DHT22;4135;49.184;9.722;2023-03-23T17:39:10;21.30;51.10
8188;DHT22;4135;49.184;9.722;2023-03-23T17:41:39;21.20;51.00
8188;DHT22;4135;49.184;9.722;2023-03-23T17:44:09;21.20;51.00
8188;DHT22;4135;49.184;9.722;2023-03-23T17:46:38;21.30;51.10
8188;DHT22;4135;49.184;9.722;2023-03-23T17:49:08;21.30;51.20
8188;DHT22;4135;49.184;9.722;2023-03-23T17:51:37;21.30;51.30
8188;DHT22;4135;49.184;9.722;2023-03-23T17:54:07;21.20;51.20
8188;DHT22;4135;49.184;9.722;2023-03-23T17:56:36;21.20;51.20
8188;DHT22;4135;49.184;9.722;2023-03-23T17:59:06;21.20;51.20
8188;DHT22;4135;49.184;9.722;2023-03-23T18:01:36;21.20;51.20
8188;DHT22;4135;49.184;9.722;2023-03-23T18:04:05;21.20;51.30
8188;DHT22;4135;49.184;9.722;2023-03-23T18:06:35;21.30;51.30
8188;DHT22;4135;49.184;9.722;2023-03-23T18:09:04;21.30;51.30
8188;DHT22;4135;49.184;9.722;2023-03-23T18:11:34;21.30;51.30
8188;DHT22;4135;49.184;9.722;2023-03-23T18:14:04;21.30;51.30
8188;DHT22;4135;49.184;9.722;2023-03-23T18:16:34;21.30;51.30
8188;DHT22;4135;49.184;9.722;2023-03-23T18:19:04;21.30;51.30
8188;DHT22;4135;49.184;9.722;2023-03-23T18:21:34;21.30;51.30
8188;DHT22;4135;49.184;9.722;2023-03-23T18:24:04;21.30;51.30
8188;DHT22;4135;49.184;9.722;2023-03-23T18:26:34;21.30;51.30
8188;DHT22;4135;49.184;9.722;2023-03-23T18:29:04;21.30;51.50
8188;DHT22;4135;49.184;9.722;2023-03-23T18:31:33;21.30;51.60
8188;DHT22;4135;49.184;9.722;2023-03-23T18:34:08;21.30;51.60